createdAt,value
2022-08-25T00:01:46.587Z,62.40
2022-08-25T00:06:53.468Z,62.45
2022-08-25T00:11:59.183Z,62.60
2022-08-25T00:17:05.246Z,62.72
2022-08-25T00:22:11.258Z,62.77
2022-08-25T00:27:17.162Z,63.04
2022-08-25T00:32:22.850Z,63.33
2022-08-25T00:37:28.469Z,63.47
2022-08-25T00:42:33.968Z,63.38
2022-08-25T00:47:40.974Z,63.24
2022-08-25T00:52:48.667Z,63.35
2022-08-25T00:57:56.313Z,63.45
2022-08-25T01:03:02.916Z,63.54
2022-08-25T01:08:09.735Z,63.92
2022-08-25T01:13:18.431Z,64.13
2022-08-25T01:18:24.512Z,64.20
2022-08-25T01:23:30.618Z,64.40
2022-08-25T01:28:36.268Z,64.81
2022-08-25T01:33:43.029Z,64.99
2022-08-25T01:38:48.824Z,64.98
2022-08-25T01:43:54.606Z,65.17
2022-08-25T01:49:02.792Z,65.28
2022-08-25T01:54:11.768Z,65.61
2022-08-25T01:59:23.976Z,65.71
2022-08-25T02:04:32.678Z,65.61
2022-08-25T02:09:39.655Z,65.88
2022-08-25T02:14:45.120Z,65.81
2022-08-25T02:19:50.338Z,65.82
2022-08-25T02:24:55.741Z,65.79
2022-08-25T02:30:03.866Z,65.91
2022-08-25T02:35:10.292Z,65.87
2022-08-25T02:40:16.054Z,66.08
2022-08-25T02:45:21.593Z,66.22
2022-08-25T02:50:27.075Z,66.18
2022-08-25T02:55:34.652Z,66.39
2022-08-25T03:00:40.307Z,66.32
2022-08-25T03:05:49.245Z,66.49
2022-08-25T03:10:54.560Z,66.47
2022-08-25T03:16:00.148Z,66.80
2022-08-25T03:21:05.831Z,66.70
2022-08-25T03:26:28.802Z,66.81
2022-08-25T03:31:34.775Z,67.08
2022-08-25T03:36:40.984Z,66.96
2022-08-25T03:41:47.556Z,67.15
2022-08-25T03:46:53.967Z,67.32
2022-08-25T03:51:59.925Z,67.27
2022-08-25T03:57:06.801Z,67.37
2022-08-25T04:02:12.322Z,67.25
2022-08-25T04:07:18.235Z,67.36
2022-08-25T04:12:24.104Z,67.39
2022-08-25T04:17:29.642Z,67.63
2022-08-25T04:22:36.715Z,67.77
2022-08-25T04:27:42.428Z,67.69
2022-08-25T04:32:48.697Z,67.68
2022-08-25T04:37:54.108Z,67.80
2022-08-25T04:42:59.542Z,67.74
2022-08-25T04:48:05.394Z,67.95
2022-08-25T04:53:10.942Z,68.07
2022-08-25T04:58:17.158Z,68.06
2022-08-25T05:03:22.922Z,68.27
2022-08-25T05:08:28.642Z,68.33
2022-08-25T05:13:34.508Z,68.50
2022-08-25T05:18:40.278Z,68.59
2022-08-25T05:23:46.945Z,68.72
2022-08-25T05:28:53.028Z,68.67
2022-08-25T05:33:58.893Z,68.72
2022-08-25T05:39:04.719Z,68.94
2022-08-25T05:44:10.276Z,68.90
2022-08-25T05:49:15.723Z,69.03
2022-08-25T05:54:21.545Z,69.18
2022-08-25T05:59:27.212Z,69.22
2022-08-25T06:04:32.862Z,69.21
2022-08-25T06:09:39.203Z,69.37
2022-08-25T06:14:45.090Z,69.31
2022-08-25T06:19:50.323Z,69.14
2022-08-25T06:24:56.362Z,69.05
2022-08-25T06:30:08.043Z,68.93
2022-08-25T06:35:16.661Z,68.51
2022-08-25T06:40:22.380Z,68.21
2022-08-25T06:45:28.003Z,67.90
2022-08-25T06:50:33.555Z,67.69
2022-08-25T06:55:39.359Z,67.56
2022-08-25T07:00:44.751Z,67.26
2022-08-25T07:05:54.996Z,66.91
2022-08-25T07:11:01.194Z,66.80
2022-08-25T07:16:07.592Z,66.59
2022-08-25T07:21:14.142Z,66.58
2022-08-25T07:26:36.685Z,66.33
2022-08-25T07:31:43.473Z,66.14
2022-08-25T07:36:49.229Z,66.04
2022-08-25T07:41:55.122Z,65.95
2022-08-25T07:47:00.819Z,65.82
2022-08-25T07:52:07.169Z,65.54
2022-08-25T07:57:14.558Z,65.17
2022-08-25T08:02:20.115Z,64.75
2022-08-25T08:07:43.464Z,64.86
2022-08-25T08:12:49.919Z,64.29
2022-08-25T08:17:57.009Z,63.72
2022-08-25T08:23:04.061Z,63.71
2022-08-25T08:28:10.850Z,63.49
2022-08-25T08:33:16.585Z,63.44
2022-08-25T08:38:26.865Z,63.30
2022-08-25T08:43:33.723Z,63.17
2022-08-25T08:48:51.289Z,62.95
2022-08-25T08:53:58.634Z,62.77
2022-08-25T08:59:07.559Z,62.30
2022-08-25T09:04:15.464Z,62.10
2022-08-25T09:09:26.951Z,61.95
2022-08-25T09:14:40.822Z,61.77
2022-08-25T09:20:05.510Z,61.60
2022-08-25T09:25:48.750Z,61.57
2022-08-25T09:30:56.940Z,61.40
2022-08-25T09:36:04.571Z,61.21
2022-08-25T09:41:12.832Z,60.96
2022-08-25T09:46:20.512Z,60.66
2022-08-25T09:51:29.404Z,60.27
2022-08-25T09:56:51.304Z,59.65
2022-08-25T10:01:57.378Z,59.42
2022-08-25T10:07:04.339Z,59.25
2022-08-25T10:12:21.518Z,58.96
2022-08-25T10:17:34.596Z,58.74
2022-08-25T10:22:40.542Z,58.46
2022-08-25T10:27:55.577Z,58.08
2022-08-25T10:33:10.747Z,57.81
2022-08-25T10:38:27.179Z,57.65
2022-08-25T10:43:37.588Z,57.85
2022-08-25T10:48:51.025Z,57.64
2022-08-25T10:54:02.342Z,57.62
2022-08-25T10:59:22.747Z,57.24
2022-08-25T11:04:30.959Z,56.99
2022-08-25T11:09:40.857Z,56.62
2022-08-25T11:14:50.956Z,56.19
2022-08-25T11:19:59.507Z,55.82
2022-08-25T11:25:12.144Z,55.24
2022-08-25T11:30:19.130Z,55.09
2022-08-25T11:35:29.225Z,54.78
2022-08-25T11:40:54.902Z,54.45
2022-08-25T11:46:10.613Z,54.23
2022-08-25T11:51:33.719Z,53.49
2022-08-25T11:56:41.901Z,52.74
2022-08-25T12:02:03.505Z,52.42
2022-08-25T12:07:29.441Z,51.90
2022-08-25T12:12:38.422Z,51.61
2022-08-25T12:17:44.650Z,51.12
2022-08-25T12:23:00.648Z,51.00
2022-08-25T12:28:11.342Z,50.67
2022-08-25T12:33:22.220Z,50.42
2022-08-25T12:38:35.084Z,50.22
2022-08-25T12:43:45.419Z,49.82
2022-08-25T12:48:58.939Z,49.65
2022-08-25T12:54:19.190Z,49.28
2022-08-25T12:59:34.422Z,48.85
2022-08-25T13:05:03.538Z,48.64
2022-08-25T13:10:20.910Z,48.19
2022-08-25T13:15:34.804Z,47.77
2022-08-25T13:20:40.280Z,47.40
2022-08-25T13:25:52.521Z,47.42
2022-08-25T13:31:03.574Z,48.23
2022-08-25T13:36:26.764Z,49.32
2022-08-25T13:41:34.099Z,49.89
2022-08-25T13:46:39.627Z,49.89
2022-08-25T13:51:55.144Z,49.81
2022-08-25T13:57:08.430Z,49.81
2022-08-25T14:02:19.326Z,49.64
2022-08-25T14:07:33.755Z,49.63
2022-08-25T14:12:41.544Z,49.61
2022-08-25T14:17:49.146Z,49.49
2022-08-25T14:22:58.041Z,49.04
2022-08-25T14:28:07.224Z,48.79
2022-08-25T14:33:13.544Z,48.36
2022-08-25T14:38:19.267Z,48.07
2022-08-25T14:43:31.439Z,47.87
2022-08-25T14:48:44.800Z,47.58
2022-08-25T14:53:50.309Z,47.50
2022-08-25T14:58:56.666Z,47.41
2022-08-25T15:04:07.625Z,47.19
2022-08-25T15:09:14.024Z,46.99
2022-08-25T15:14:28.531Z,46.62
2022-08-25T15:19:38.361Z,46.20
2022-08-25T15:24:43.784Z,45.67
2022-08-25T15:29:49.986Z,45.28
2022-08-25T15:34:55.362Z,44.85
2022-08-25T15:40:01.265Z,44.62
2022-08-25T15:45:07.779Z,44.22
2022-08-25T15:50:15.420Z,44.10
2022-08-25T15:55:21.728Z,44.06
2022-08-25T16:00:27.780Z,43.78
2022-08-25T16:05:38.619Z,43.53
2022-08-25T16:10:46.702Z,43.63
2022-08-25T16:15:54.332Z,43.39
2022-08-25T16:21:01.069Z,43.35
2022-08-25T16:26:09.374Z,43.37
2022-08-25T16:31:17.338Z,43.17
2022-08-25T16:36:24.662Z,43.08
2022-08-25T16:41:35.695Z,43.04
2022-08-25T16:46:42.616Z,43.13
2022-08-25T16:51:50.047Z,43.23
2022-08-25T16:57:03.751Z,43.58
2022-08-25T17:02:09.169Z,44.22
2022-08-25T17:07:14.671Z,44.89
2022-08-25T17:12:29.628Z,45.23
2022-08-25T17:17:37.294Z,45.59
2022-08-25T17:22:44.139Z,45.87
2022-08-25T17:27:50.025Z,46.22
2022-08-25T17:32:55.986Z,46.59
2022-08-25T17:38:01.945Z,47.00
2022-08-25T17:43:12.245Z,47.37
2022-08-25T17:48:17.834Z,47.65
2022-08-25T17:53:23.911Z,47.98
2022-08-25T17:58:30.121Z,48.24
2022-08-25T18:03:35.959Z,48.43
2022-08-25T18:08:43.257Z,48.78
2022-08-25T18:13:50.542Z,48.93
2022-08-25T18:18:56.409Z,49.22
2022-08-25T18:24:03.667Z,49.45
2022-08-25T18:29:12.566Z,49.62
2022-08-25T18:34:18.914Z,49.89
2022-08-25T18:39:41.731Z,50.15
2022-08-25T18:44:49.394Z,50.43
2022-08-25T18:49:55.157Z,50.60
2022-08-25T18:55:00.660Z,50.93
2022-08-25T19:00:09.026Z,51.17
2022-08-25T19:05:15.733Z,51.39
2022-08-25T19:10:24.148Z,51.66
2022-08-25T19:15:32.086Z,51.97
2022-08-25T19:20:38.754Z,52.21
2022-08-25T19:25:45.031Z,52.45
2022-08-25T19:30:53.294Z,52.74
2022-08-25T19:35:59.463Z,53.04
2022-08-25T19:41:09.062Z,53.25
2022-08-25T19:46:21.168Z,53.52
2022-08-25T19:51:26.684Z,53.46
2022-08-25T19:56:33.056Z,53.49
2022-08-25T20:01:39.058Z,53.46
2022-08-25T20:06:48.405Z,53.62
2022-08-25T20:11:53.956Z,53.63
2022-08-25T20:17:00.269Z,53.73
2022-08-25T20:22:06.144Z,53.93
2022-08-25T20:27:17.242Z,54.44
2022-08-25T20:32:23.099Z,55.08
2022-08-25T20:37:28.761Z,55.49
2022-08-25T20:42:34.121Z,55.79
2022-08-25T20:47:39.762Z,55.88
2022-08-25T20:52:48.558Z,56.05
2022-08-25T20:57:54.317Z,56.23
2022-08-25T21:02:59.686Z,56.48
2022-08-25T21:08:06.516Z,56.66
2022-08-25T21:13:12.037Z,57.04
2022-08-25T21:18:18.020Z,57.33
2022-08-25T21:23:23.647Z,57.54
2022-08-25T21:28:29.301Z,57.77
2022-08-25T21:33:34.949Z,58.01
2022-08-25T21:38:41.326Z,58.29
2022-08-25T21:43:48.355Z,58.48
2022-08-25T21:48:54.615Z,58.55
2022-08-25T21:54:10.864Z,58.52
2022-08-25T21:59:17.431Z,58.89
2022-08-25T22:04:22.766Z,59.13
2022-08-25T22:09:29.574Z,59.28
2022-08-25T22:14:35.502Z,59.58
2022-08-25T22:19:41.320Z,59.77
2022-08-25T22:24:46.886Z,59.96
2022-08-25T22:29:52.751Z,60.18
2022-08-25T22:34:58.233Z,60.27
2022-08-25T22:40:04.661Z,60.48
2022-08-25T22:45:11.736Z,60.64
2022-08-25T22:50:18.116Z,60.82
2022-08-25T22:55:24.351Z,60.94
2022-08-25T23:00:33.476Z,61.15
2022-08-25T23:05:39.904Z,61.14
2022-08-25T23:10:51.606Z,61.24
2022-08-25T23:15:56.721Z,61.45
2022-08-25T23:21:24.165Z,61.46
2022-08-25T23:26:29.843Z,61.51
2022-08-25T23:31:35.485Z,61.52
2022-08-25T23:36:41.013Z,61.54
2022-08-25T23:41:48.250Z,61.46
2022-08-25T23:46:53.863Z,61.61
2022-08-25T23:51:59.372Z,62.02
2022-08-25T23:57:06.768Z,62.23
